sensor_id;sensor_type;location;lat;lon;timestamp;pressure;altitude;pressure_sealevel;temperature;humidity
73862;BME280;63459;51.456;-0.916;2023-07-20T00:01:35;101135.17;;;31.50;16.07
73862;BME280;63459;51.456;-0.916;2023-07-20T00:04:01;101133.41;;;31.70;16.07
73862;BME280;63459;51.456;-0.916;2023-07-20T00:06:27;101135.92;;;31.16;16.02
73862;BME280;63459;51.456;-0.916;2023-07-20T00:08:51;101133.77;;;31.36;16.08
73862;BME280;63459;51.456;-0.916;2023-07-20T00:11:16;101141.04;;;31.74;16.12
73862;BME280;63459;51.456;-0.916;2023-07-20T00:13:42;101143.99;;;31.70;16.15
73862;BME280;63459;51.456;-0.916;2023-07-20T00:16:12;101139.05;;;31.42;16.18
73862;BME280;63459;51.456;-0.916;2023-07-20T00:18:31;101141.88;;;31.47;16.13
73862;BME280;63459;51.456;-0.916;2023-07-20T00:21:02;101144.06;;;31.84;16.11
73862;BME280;63459;51.456;-0.916;2023-07-20T00:23:22;101144.31;;;31.56;15.97
73862;BME280;63459;51.456;-0.916;2023-07-20T00:25:47;101144.46;;;31.55;15.92
73862;BME280;63459;51.456;-0.916;2023-07-20T00:28:12;101143.57;;;31.31;15.88
73862;BME280;63459;51.456;-0.916;2023-07-20T00:30:39;101140.90;;;31.50;15.84
73862;BME280;63459;51.456;-0.916;2023-07-20T00:33:04;101143.54;;;31.25;15.73
73862;BME280;63459;51.456;-0.916;2023-07-20T00:35:33;101145.04;;;31.64;15.70
73862;BME280;63459;51.456;-0.916;2023-07-20T00:37:53;101146.27;;;31.19;15.65
73862;BME280;63459;51.456;-0.916;2023-07-20T00:40:18;101147.79;;;31.62;15.56
73862;BME280;63459;51.456;-0.916;2023-07-20T00:42:43;101141.81;;;31.59;15.64
73862;BME280;63459;51.456;-0.916;2023-07-20T00:45:09;101143.17;;;31.36;15.61
73862;BME280;63459;51.456;-0.916;2023-07-20T00:47:34;101142.91;;;31.57;15.59
73862;BME280;63459;51.456;-0.916;2023-07-20T00:49:59;101141.25;;;31.29;15.63
73862;BME280;63459;51.456;-0.916;2023-07-20T00:52:25;101137.61;;;31.20;15.65
73862;BME280;63459;51.456;-0.916;2023-07-20T00:57:15;101128.88;;;30.57;15.78
73862;BME280;63459;51.456;-0.916;2023-07-20T00:59:41;101129.31;;;31.31;15.88
73862;BME280;63459;51.456;-0.916;2023-07-20T01:02:12;101130.70;;;31.03;15.92
73862;BME280;63459;51.456;-0.916;2023-07-20T01:07:00;101128.45;;;31.28;16.03
73862;BME280;63459;51.456;-0.916;2023-07-20T01:09:27;101123.44;;;30.96;16.12
73862;BME280;63459;51.456;-0.916;2023-07-20T01:11:55;101125.61;;;31.13;16.21
73862;BME280;63459;51.456;-0.916;2023-07-20T01:14:12;101130.67;;;30.84;16.28
73862;BME280;63459;51.456;-0.916;2023-07-20T01:16:37;101133.75;;;30.74;16.35
73862;BME280;63459;51.456;-0.916;2023-07-20T01:19:02;101134.76;;;31.29;16.43
73862;BME280;63459;51.456;-0.916;2023-07-20T01:21:34;101133.69;;;30.82;16.49
73862;BME280;63459;51.456;-0.916;2023-07-20T01:28:50;101128.09;;;30.46;16.60
73862;BME280;63459;51.456;-0.916;2023-07-20T01:31:17;101129.63;;;30.65;16.61
73862;BME280;63459;51.456;-0.916;2023-07-20T01:33:34;101131.11;;;30.40;16.62
73862;BME280;63459;51.456;-0.916;2023-07-20T01:36:05;101127.73;;;30.62;16.57
73862;BME280;63459;51.456;-0.916;2023-07-20T01:38:24;101130.11;;;30.40;16.52
73862;BME280;63459;51.456;-0.916;2023-07-20T01:40:50;101128.26;;;30.43;16.48
73862;BME280;63459;51.456;-0.916;2023-07-20T01:43:17;101130.84;;;30.44;16.52
73862;BME280;63459;51.456;-0.916;2023-07-20T01:45:40;101128.74;;;30.46;16.53
73862;BME280;63459;51.456;-0.916;2023-07-20T01:48:05;101127.20;;;30.18;16.60
73862;BME280;63459;51.456;-0.916;2023-07-20T01:50:30;101127.87;;;30.54;16.64
73862;BME280;63459;51.456;-0.916;2023-07-20T01:52:57;101127.23;;;30.71;16.66
73862;BME280;63459;51.456;-0.916;2023-07-20T01:57:46;101122.37;;;30.89;16.69
73862;BME280;63459;51.456;-0.916;2023-07-20T02:00:12;101120.60;;;30.14;16.78
73862;BME280;63459;51.456;-0.916;2023-07-20T02:02:41;101118.81;;;30.30;16.84
73862;BME280;63459;51.456;-0.916;2023-07-20T02:05:03;101116.09;;;30.42;16.90
73862;BME280;63459;51.456;-0.916;2023-07-20T02:07:33;101111.90;;;30.18;16.90
73862;BME280;63459;51.456;-0.916;2023-07-20T02:09:53;101118.23;;;30.55;16.90
73862;BME280;63459;51.456;-0.916;2023-07-20T02:12:18;101113.25;;;30.31;16.92
73862;BME280;63459;51.456;-0.916;2023-07-20T02:14:43;101116.88;;;30.29;16.93
73862;BME280;63459;51.456;-0.916;2023-07-20T02:17:09;101118.60;;;30.03;16.96
73862;BME280;63459;51.456;-0.916;2023-07-20T02:19:34;101117.04;;;29.95;17.00
73862;BME280;63459;51.456;-0.916;2023-07-20T02:22:00;101116.07;;;29.74;17.00
73862;BME280;63459;51.456;-0.916;2023-07-20T02:24:24;101118.94;;;30.16;17.00
73862;BME280;63459;51.456;-0.916;2023-07-20T03:53:57;101115.87;;;29.04;17.99
73862;BME280;63459;51.456;-0.916;2023-07-20T03:56:24;101111.25;;;28.85;17.92
73862;BME280;63459;51.456;-0.916;2023-07-20T03:58:48;101114.34;;;28.83;17.92
73862;BME280;63459;51.456;-0.916;2023-07-20T04:01:13;101110.72;;;28.77;17.96
73862;BME280;63459;51.456;-0.916;2023-07-20T04:03:38;101111.95;;;28.73;17.94
73862;BME280;63459;51.456;-0.916;2023-07-20T04:06:03;101111.67;;;28.89;17.96
73862;BME280;63459;51.456;-0.916;2023-07-20T04:08:29;101114.41;;;29.26;17.99
73862;BME280;63459;51.456;-0.916;2023-07-20T04:10:54;101111.60;;;28.76;18.02
73862;BME280;63459;51.456;-0.916;2023-07-20T04:13:19;101108.56;;;28.26;18.08
73862;BME280;63459;51.456;-0.916;2023-07-20T04:15:50;101106.31;;;28.65;18.09
73862;BME280;63459;51.456;-0.916;2023-07-20T04:18:10;101111.35;;;28.84;18.14
73862;BME280;63459;51.456;-0.916;2023-07-20T04:20:35;101109.38;;;28.80;18.17
73862;BME280;63459;51.456;-0.916;2023-07-20T04:23:00;101108.86;;;28.55;18.21
73862;BME280;63459;51.456;-0.916;2023-07-20T04:25:25;101106.29;;;28.35;18.22
73862;BME280;63459;51.456;-0.916;2023-07-20T04:27:51;101106.62;;;28.54;18.27
73862;BME280;63459;51.456;-0.916;2023-07-20T04:30:17;101104.54;;;28.97;18.28
73862;BME280;63459;51.456;-0.916;2023-07-20T04:32:41;101105.54;;;28.77;18.30
73862;BME280;63459;51.456;-0.916;2023-07-20T04:37:32;101104.59;;;28.54;18.28
73862;BME280;63459;51.456;-0.916;2023-07-20T04:39:57;101102.26;;;28.51;18.30
73862;BME280;63459;51.456;-0.916;2023-07-20T04:42:23;101103.14;;;28.49;18.31
73862;BME280;63459;51.456;-0.916;2023-07-20T04:44:47;101106.16;;;29.17;18.31
73862;BME280;63459;51.456;-0.916;2023-07-20T04:47:13;101102.94;;;28.73;18.34
73862;BME280;63459;51.456;-0.916;2023-07-20T04:49:38;101102.61;;;28.98;18.32
73862;BME280;63459;51.456;-0.916;2023-07-20T04:52:04;101104.46;;;28.16;18.32
73862;BME280;63459;51.456;-0.916;2023-07-20T04:54:30;101104.09;;;28.85;18.31
73862;BME280;63459;51.456;-0.916;2023-07-20T04:56:54;101102.78;;;28.68;18.28
73862;BME280;63459;51.456;-0.916;2023-07-20T04:59:19;101106.27;;;28.74;18.27
73862;BME280;63459;51.456;-0.916;2023-07-20T05:01:46;101105.09;;;28.99;18.27
73862;BME280;63459;51.456;-0.916;2023-07-20T05:04:11;101101.01;;;28.87;18.21
73862;BME280;63459;51.456;-0.916;2023-07-20T05:06:35;101106.32;;;29.12;18.20
73862;BME280;63459;51.456;-0.916;2023-07-20T05:09:00;101104.46;;;28.54;18.21
73862;BME280;63459;51.456;-0.916;2023-07-20T05:11:25;101103.30;;;28.59;18.16
73862;BME280;63459;51.456;-0.916;2023-07-20T05:13:52;101103.68;;;28.57;18.18
73862;BME280;63459;51.456;-0.916;2023-07-20T05:16:16;101108.94;;;28.83;18.17
73862;BME280;63459;51.456;-0.916;2023-07-20T05:18:41;101107.01;;;29.02;18.23
73862;BME280;63459;51.456;-0.916;2023-07-20T05:21:07;101111.14;;;28.86;18.23
73862;BME280;63459;51.456;-0.916;2023-07-20T05:23:33;101110.21;;;29.07;18.27
73862;BME280;63459;51.456;-0.916;2023-07-20T05:25:58;101114.92;;;29.06;18.12
73862;BME280;63459;51.456;-0.916;2023-07-20T05:28:23;101115.74;;;29.54;17.81
73862;BME280;63459;51.456;-0.916;2023-07-20T05:30:49;101119.65;;;30.61;17.44
73862;BME280;63459;51.456;-0.916;2023-07-20T05:33:14;101116.53;;;30.72;17.04
73862;BME280;63459;51.456;-0.916;2023-07-20T05:35:39;101110.56;;;31.55;16.59
73862;BME280;63459;51.456;-0.916;2023-07-20T05:38:04;101113.05;;;32.27;16.09
73862;BME280;63459;51.456;-0.916;2023-07-20T05:40:29;101110.17;;;32.69;15.50
73862;BME280;63459;51.456;-0.916;2023-07-20T05:45:20;101116.39;;;34.36;14.36
73862;BME280;63459;51.456;-0.916;2023-07-20T05:47:46;101113.91;;;34.93;13.80
73862;BME280;63459;51.456;-0.916;2023-07-20T05:50:10;101111.62;;;35.82;13.29
73862;BME280;63459;51.456;-0.916;2023-07-20T05:52:36;101114.18;;;36.01;12.79
73862;BME280;63459;51.456;-0.916;2023-07-20T05:55:01;101112.69;;;36.76;12.30
73862;BME280;63459;51.456;-0.916;2023-07-20T05:57:26;101111.12;;;37.31;11.85
73862;BME280;63459;51.456;-0.916;2023-07-20T05:59:53;101108.01;;;37.41;11.58
73862;BME280;63459;51.456;-0.916;2023-07-20T06:02:18;101113.01;;;37.94;11.38
73862;BME280;63459;51.456;-0.916;2023-07-20T06:04:42;101113.92;;;38.03;11.13
73862;BME280;63459;51.456;-0.916;2023-07-20T06:07:08;101111.54;;;37.65;10.96
73862;BME280;63459;51.456;-0.916;2023-07-20T06:09:34;101113.71;;;38.43;10.86
73862;BME280;63459;51.456;-0.916;2023-07-20T06:14:25;101119.48;;;38.48;10.46
73862;BME280;63459;51.456;-0.916;2023-07-20T06:16:52;101122.52;;;38.75;10.36
73862;BME280;63459;51.456;-0.916;2023-07-20T06:19:18;101117.60;;;39.36;10.23
73862;BME280;63459;51.456;-0.916;2023-07-20T06:21:43;101114.59;;;39.18;10.07
73862;BME280;63459;51.456;-0.916;2023-07-20T06:24:08;101113.12;;;39.37;10.03
73862;BME280;63459;51.456;-0.916;2023-07-20T06:26:33;101114.18;;;39.72;9.95
73862;BME280;63459;51.456;-0.916;2023-07-20T06:28:59;101113.63;;;39.38;9.91
73862;BME280;63459;51.456;-0.916;2023-07-20T06:31:25;101114.37;;;38.97;9.84
73862;BME280;63459;51.456;-0.916;2023-07-20T06:33:51;101112.89;;;39.37;9.85
73862;BME280;63459;51.456;-0.916;2023-07-20T06:36:18;101111.04;;;39.17;9.87
73862;BME280;63459;51.456;-0.916;2023-07-20T06:38:42;101113.10;;;39.40;9.84
73862;BME280;63459;51.456;-0.916;2023-07-20T06:41:08;101110.67;;;39.40;9.71
73862;BME280;63459;51.456;-0.916;2023-07-20T06:43:34;101110.91;;;39.21;9.79
73862;BME280;63459;51.456;-0.916;2023-07-20T06:46:00;101113.51;;;39.49;9.78
73862;BME280;63459;51.456;-0.916;2023-07-20T06:48:25;101115.02;;;39.54;9.83
73862;BME280;63459;51.456;-0.916;2023-07-20T06:50:51;101120.77;;;39.56;9.82
73862;BME280;63459;51.456;-0.916;2023-07-20T06:53:15;101118.41;;;39.55;9.83
73862;BME280;63459;51.456;-0.916;2023-07-20T06:55:42;101117.75;;;39.52;9.83
73862;BME280;63459;51.456;-0.916;2023-07-20T06:58:07;101117.86;;;39.64;9.85
73862;BME280;63459;51.456;-0.916;2023-07-20T07:00:33;101119.56;;;39.27;9.85
73862;BME280;63459;51.456;-0.916;2023-07-20T07:02:59;101115.87;;;39.27;9.90
73862;BME280;63459;51.456;-0.916;2023-07-20T07:05:25;101119.66;;;39.98;9.92
73862;BME280;63459;51.456;-0.916;2023-07-20T07:07:50;101115.97;;;39.57;9.91
73862;BME280;63459;51.456;-0.916;2023-07-20T07:10:15;101116.85;;;39.81;9.81
73862;BME280;63459;51.456;-0.916;2023-07-20T07:12:40;101116.41;;;39.91;9.84
73862;BME280;63459;51.456;-0.916;2023-07-20T07:15:06;101117.88;;;39.37;9.94
73862;BME280;63459;51.456;-0.916;2023-07-20T07:17:35;101116.16;;;39.47;10.03
73862;BME280;63459;51.456;-0.916;2023-07-20T07:19:55;101113.96;;;39.48;10.13
73862;BME280;63459;51.456;-0.916;2023-07-20T07:22:20;101116.97;;;39.00;10.24
73862;BME280;63459;51.456;-0.916;2023-07-20T07:24:45;101119.60;;;38.80;10.31
73862;BME280;63459;51.456;-0.916;2023-07-20T07:27:11;101115.20;;;38.46;10.48
73862;BME280;63459;51.456;-0.916;2023-07-20T07:29:35;101112.68;;;38.34;10.68
73862;BME280;63459;51.456;-0.916;2023-07-20T07:32:01;101111.84;;;38.08;11.00
73862;BME280;63459;51.456;-0.916;2023-07-20T07:34:27;101111.64;;;37.78;11.15
73862;BME280;63459;51.456;-0.916;2023-07-20T07:36:52;101114.41;;;37.38;11.27
73862;BME280;63459;51.456;-0.916;2023-07-20T07:41:42;101114.00;;;37.32;11.47
73862;BME280;63459;51.456;-0.916;2023-07-20T07:44:07;101109.52;;;36.93;11.71
73862;BME280;63459;51.456;-0.916;2023-07-20T07:46:32;101109.47;;;36.54;11.93
73862;BME280;63459;51.456;-0.916;2023-07-20T07:48:58;101113.13;;;36.42;11.83
73862;BME280;63459;51.456;-0.916;2023-07-20T07:51:23;101107.22;;;36.42;12.04
73862;BME280;63459;51.456;-0.916;2023-07-20T07:53:48;101107.38;;;35.65;12.30
73862;BME280;63459;51.456;-0.916;2023-07-20T07:56:13;101107.78;;;35.53;12.53
73862;BME280;63459;51.456;-0.916;2023-07-20T07:58:38;101105.87;;;35.34;12.70
73862;BME280;63459;51.456;-0.916;2023-07-20T08:01:04;101104.80;;;35.66;12.74
73862;BME280;63459;51.456;-0.916;2023-07-20T08:03:29;101104.27;;;35.76;12.80
73862;BME280;63459;51.456;-0.916;2023-07-20T08:05:54;101105.50;;;35.17;12.95
73862;BME280;63459;51.456;-0.916;2023-07-20T08:08:19;101106.91;;;35.13;13.23
73862;BME280;63459;51.456;-0.916;2023-07-20T08:10:44;101100.78;;;34.85;13.19
73862;BME280;63459;51.456;-0.916;2023-07-20T08:13:09;101103.93;;;34.80;12.99
73862;BME280;63459;51.456;-0.916;2023-07-20T08:15:39;101102.18;;;34.99;12.94
73862;BME280;63459;51.456;-0.916;2023-07-20T08:20:24;101104.38;;;35.00;12.94
73862;BME280;63459;51.456;-0.916;2023-07-20T08:22:49;101107.68;;;34.73;12.98
73862;BME280;63459;51.456;-0.916;2023-07-20T08:25:15;101107.57;;;35.10;13.06
73862;BME280;63459;51.456;-0.916;2023-07-20T08:27:40;101102.55;;;34.97;13.06
73862;BME280;63459;51.456;-0.916;2023-07-20T08:30:06;101100.65;;;35.36;12.91
73862;BME280;63459;51.456;-0.916;2023-07-20T08:32:30;101106.80;;;35.12;12.58
73862;BME280;63459;51.456;-0.916;2023-07-20T08:34:56;101105.18;;;35.27;12.71
73862;BME280;63459;51.456;-0.916;2023-07-20T08:37:20;101104.42;;;35.15;12.86
73862;BME280;63459;51.456;-0.916;2023-07-20T08:39:45;101101.77;;;34.72;12.96
73862;BME280;63459;51.456;-0.916;2023-07-20T08:42:14;101101.79;;;34.88;12.94
73862;BME280;63459;51.456;-0.916;2023-07-20T08:44:36;101102.86;;;35.15;13.07
73862;BME280;63459;51.456;-0.916;2023-07-20T08:47:02;101102.88;;;34.82;12.99
73862;BME280;63459;51.456;-0.916;2023-07-20T08:49:27;101097.72;;;34.63;12.86
73862;BME280;63459;51.456;-0.916;2023-07-20T08:51:52;101102.40;;;34.86;13.01
73862;BME280;63459;51.456;-0.916;2023-07-20T08:54:17;101101.70;;;34.91;12.75
73862;BME280;63459;51.456;-0.916;2023-07-20T08:56:45;101096.03;;;35.05;12.14
73862;BME280;63459;51.456;-0.916;2023-07-20T08:59:08;101100.93;;;35.41;12.36
73862;BME280;63459;51.456;-0.916;2023-07-20T09:01:33;101100.38;;;34.57;12.59
73862;BME280;63459;51.456;-0.916;2023-07-20T09:03:57;101097.80;;;34.72;12.74
73862;BME280;63459;51.456;-0.916;2023-07-20T09:06:22;101097.93;;;35.20;12.61
73862;BME280;63459;51.456;-0.916;2023-07-20T09:08:49;101092.50;;;35.11;12.73
73862;BME280;63459;51.456;-0.916;2023-07-20T09:11:14;101088.95;;;35.03;12.73
73862;BME280;63459;51.456;-0.916;2023-07-20T09:13:38;101093.18;;;35.12;12.55
73862;BME280;63459;51.456;-0.916;2023-07-20T09:16:03;101089.84;;;35.59;12.26
73862;BME280;63459;51.456;-0.916;2023-07-20T09:18:31;101087.62;;;35.53;12.07
73862;BME280;63459;51.456;-0.916;2023-07-20T09:20:54;101083.05;;;35.02;11.99
73862;BME280;63459;51.456;-0.916;2023-07-20T09:23:19;101083.16;;;35.27;12.13
73862;BME280;63459;51.456;-0.916;2023-07-20T09:25:43;101087.14;;;35.03;12.14
73862;BME280;63459;51.456;-0.916;2023-07-20T09:28:09;101084.79;;;34.98;12.16
73862;BME280;63459;51.456;-0.916;2023-07-20T09:30:34;101083.83;;;34.96;12.33
73862;BME280;63459;51.456;-0.916;2023-07-20T09:33:00;101081.75;;;35.14;12.42
73862;BME280;63459;51.456;-0.916;2023-07-20T09:35:25;101080.44;;;35.02;12.35
73862;BME280;63459;51.456;-0.916;2023-07-20T09:37:55;101078.69;;;35.44;12.48
73862;BME280;63459;51.456;-0.916;2023-07-20T09:40:15;101073.50;;;35.36;12.56
73862;BME280;63459;51.456;-0.916;2023-07-20T09:42:40;101074.60;;;35.23;12.72
73862;BME280;63459;51.456;-0.916;2023-07-20T09:45:07;101073.64;;;35.47;12.58
73862;BME280;63459;51.456;-0.916;2023-07-20T09:47:31;101076.21;;;35.30;12.41
73862;BME280;63459;51.456;-0.916;2023-07-20T09:49:58;101071.86;;;35.46;12.28
73862;BME280;63459;51.456;-0.916;2023-07-20T09:52:21;101070.05;;;35.43;12.00
73862;BME280;63459;51.456;-0.916;2023-07-20T09:54:46;101064.92;;;35.25;11.98
73862;BME280;63459;51.456;-0.916;2023-07-20T09:57:11;101063.87;;;35.57;11.97
73862;BME280;63459;51.456;-0.916;2023-07-20T09:59:37;101062.09;;;35.39;11.83
73862;BME280;63459;51.456;-0.916;2023-07-20T10:02:08;101064.98;;;35.16;11.90
73862;BME280;63459;51.456;-0.916;2023-07-20T10:04:28;101066.34;;;35.84;11.68
73862;BME280;63459;51.456;-0.916;2023-07-20T10:06:54;101061.21;;;35.60;11.55
73862;BME280;63459;51.456;-0.916;2023-07-20T10:09:18;101059.08;;;35.47;11.60
73862;BME280;63459;51.456;-0.916;2023-07-20T10:11:50;101059.55;;;35.92;11.51
73862;BME280;63459;51.456;-0.916;2023-07-20T10:14:09;101051.04;;;36.13;11.51
73862;BME280;63459;51.456;-0.916;2023-07-20T10:16:35;101056.68;;;35.55;11.38
73862;BME280;63459;51.456;-0.916;2023-07-20T10:19:05;101054.27;;;35.59;11.27
73862;BME280;63459;51.456;-0.916;2023-07-20T10:21:24;101051.30;;;36.00;11.13
73862;BME280;63459;51.456;-0.916;2023-07-20T10:23:50;101058.07;;;35.70;10.96
73862;BME280;63459;51.456;-0.916;2023-07-20T10:26:14;101050.45;;;35.40;10.78
73862;BME280;63459;51.456;-0.916;2023-07-20T10:28:40;101053.73;;;35.46;10.89
73862;BME280;63459;51.456;-0.916;2023-07-20T10:31:05;101045.84;;;35.41;11.03
73862;BME280;63459;51.456;-0.916;2023-07-20T10:33:30;101045.50;;;35.45;11.18
73862;BME280;63459;51.456;-0.916;2023-07-20T10:35:57;101046.60;;;35.42;11.10
73862;BME280;63459;51.456;-0.916;2023-07-20T10:40:54;101046.58;;;35.12;11.00
73862;BME280;63459;51.456;-0.916;2023-07-20T10:43:11;101046.36;;;35.22;11.09
73862;BME280;63459;51.456;-0.916;2023-07-20T10:45:40;101041.49;;;35.14;11.14
73862;BME280;63459;51.456;-0.916;2023-07-20T10:48:04;101039.70;;;35.16;11.22
73862;BME280;63459;51.456;-0.916;2023-07-20T10:55:17;101032.04;;;35.17;11.10
73862;BME280;63459;51.456;-0.916;2023-07-20T10:57:42;101033.30;;;35.30;11.05
73862;BME280;63459;51.456;-0.916;2023-07-20T11:00:09;101035.78;;;35.71;10.81
73862;BME280;63459;51.456;-0.916;2023-07-20T11:04:58;101033.82;;;35.75;10.75
73862;BME280;63459;51.456;-0.916;2023-07-20T11:09:49;101031.90;;;35.67;11.00
73862;BME280;63459;51.456;-0.916;2023-07-20T11:12:16;101030.26;;;34.90;11.12
73862;BME280;63459;51.456;-0.916;2023-07-20T11:14:41;101028.45;;;35.48;11.16
73862;BME280;63459;51.456;-0.916;2023-07-20T11:17:12;101022.96;;;34.97;10.93
73862;BME280;63459;51.456;-0.916;2023-07-20T11:19:29;101024.01;;;35.34;10.56
73862;BME280;63459;51.456;-0.916;2023-07-20T11:21:55;101025.68;;;35.28;10.66
73862;BME280;63459;51.456;-0.916;2023-07-20T11:24:21;101023.22;;;35.03;10.53
73862;BME280;63459;51.456;-0.916;2023-07-20T11:26:46;101021.09;;;35.94;10.49
73862;BME280;63459;51.456;-0.916;2023-07-20T11:29:10;101017.94;;;35.85;10.40
73862;BME280;63459;51.456;-0.916;2023-07-20T11:31:36;101015.30;;;35.69;10.40
73862;BME280;63459;51.456;-0.916;2023-07-20T11:34:00;101017.93;;;34.97;10.24
73862;BME280;63459;51.456;-0.916;2023-07-20T11:36:26;101019.99;;;35.20;10.36
73862;BME280;63459;51.456;-0.916;2023-07-20T11:38:51;101014.74;;;35.71;10.43
73862;BME280;63459;51.456;-0.916;2023-07-20T11:41:16;101010.68;;;35.67;10.54
73862;BME280;63459;51.456;-0.916;2023-07-20T11:43:41;101009.50;;;35.20;10.65
73862;BME280;63459;51.456;-0.916;2023-07-20T11:46:06;101002.30;;;35.97;10.60
73862;BME280;63459;51.456;-0.916;2023-07-20T11:48:31;101003.89;;;35.64;10.70
73862;BME280;63459;51.456;-0.916;2023-07-20T11:50:56;101001.51;;;35.77;10.71
73862;BME280;63459;51.456;-0.916;2023-07-20T11:53:23;101003.03;;;35.80;10.64
73862;BME280;63459;51.456;-0.916;2023-07-20T11:55:48;100999.36;;;36.10;10.61
73862;BME280;63459;51.456;-0.916;2023-07-20T11:58:12;101002.64;;;36.15;10.62
73862;BME280;63459;51.456;-0.916;2023-07-20T12:00:38;101000.43;;;36.37;10.49
73862;BME280;63459;51.456;-0.916;2023-07-20T12:03:05;101005.98;;;36.22;10.29
73862;BME280;63459;51.456;-0.916;2023-07-20T12:05:27;101000.53;;;36.02;10.16
73862;BME280;63459;51.456;-0.916;2023-07-20T12:07:53;100993.79;;;36.17;10.06
73862;BME280;63459;51.456;-0.916;2023-07-20T12:10:23;100993.18;;;35.90;9.94
73862;BME280;63459;51.456;-0.916;2023-07-20T12:12:44;100993.89;;;36.10;10.01
73862;BME280;63459;51.456;-0.916;2023-07-20T12:15:13;100987.94;;;36.15;10.14
73862;BME280;63459;51.456;-0.916;2023-07-20T12:17:33;100983.86;;;36.07;10.31
73862;BME280;63459;51.456;-0.916;2023-07-20T12:19:58;100977.62;;;36.19;10.29
73862;BME280;63459;51.456;-0.916;2023-07-20T12:22:23;100972.05;;;36.08;10.09
73862;BME280;63459;51.456;-0.916;2023-07-20T12:24:52;100974.86;;;36.78;9.97
73862;BME280;63459;51.456;-0.916;2023-07-20T12:27:14;100975.87;;;36.65;9.77
73862;BME280;63459;51.456;-0.916;2023-07-20T12:29:38;100975.67;;;36.47;9.42
73862;BME280;63459;51.456;-0.916;2023-07-20T12:32:05;100967.30;;;36.11;9.55
73862;BME280;63459;51.456;-0.916;2023-07-20T12:34:29;100964.10;;;35.74;9.67
73862;BME280;63459;51.456;-0.916;2023-07-20T12:36:55;100959.45;;;35.87;9.78
73862;BME280;63459;51.456;-0.916;2023-07-20T12:39:19;100958.20;;;35.99;9.93
73862;BME280;63459;51.456;-0.916;2023-07-20T12:41:44;100957.08;;;36.02;10.06
73862;BME280;63459;51.456;-0.916;2023-07-20T12:44:09;100953.30;;;35.93;10.15
73862;BME280;63459;51.456;-0.916;2023-07-20T12:46:34;100951.69;;;35.76;10.09
73862;BME280;63459;51.456;-0.916;2023-07-20T12:48:59;100951.75;;;35.97;9.83
73862;BME280;63459;51.456;-0.916;2023-07-20T12:51:25;100948.00;;;35.90;9.56
73862;BME280;63459;51.456;-0.916;2023-07-20T12:53:50;100945.85;;;36.10;9.31
73862;BME280;63459;51.456;-0.916;2023-07-20T12:56:15;100945.03;;;36.15;8.95
73862;BME280;63459;51.456;-0.916;2023-07-20T13:01:05;100939.07;;;35.60;9.30
73862;BME280;63459;51.456;-0.916;2023-07-20T13:05:57;100937.03;;;35.92;9.40
73862;BME280;63459;51.456;-0.916;2023-07-20T13:08:21;100936.29;;;35.71;9.23
73862;BME280;63459;51.456;-0.916;2023-07-20T13:10:46;100931.16;;;35.52;9.21
73862;BME280;63459;51.456;-0.916;2023-07-20T13:13:11;100929.24;;;36.28;9.15
73862;BME280;63459;51.456;-0.916;2023-07-20T13:15:41;100929.77;;;36.15;8.84
73862;BME280;63459;51.456;-0.916;2023-07-20T13:18:02;100926.15;;;36.28;8.81
73862;BME280;63459;51.456;-0.916;2023-07-20T13:20:27;100926.28;;;36.40;8.83
73862;BME280;63459;51.456;-0.916;2023-07-20T13:22:53;100920.56;;;35.95;8.84
73862;BME280;63459;51.456;-0.916;2023-07-20T13:25:19;100928.44;;;36.09;9.11
73862;BME280;63459;51.456;-0.916;2023-07-20T13:27:45;100924.28;;;36.39;9.14
73862;BME280;63459;51.456;-0.916;2023-07-20T13:30:10;100925.35;;;36.44;9.29
73862;BME280;63459;51.456;-0.916;2023-07-20T13:32:34;100925.02;;;36.34;9.51
73862;BME280;63459;51.456;-0.916;2023-07-20T13:34:59;100921.91;;;36.86;9.57
73862;BME280;63459;51.456;-0.916;2023-07-20T13:37:24;100923.43;;;36.48;9.68
73862;BME280;63459;51.456;-0.916;2023-07-20T13:39:50;100921.80;;;36.80;9.59
73862;BME280;63459;51.456;-0.916;2023-07-20T13:42:16;100920.43;;;36.80;9.43
73862;BME280;63459;51.456;-0.916;2023-07-20T13:44:41;100920.05;;;36.99;9.28
73862;BME280;63459;51.456;-0.916;2023-07-20T13:47:06;100915.25;;;37.03;9.40
73862;BME280;63459;51.456;-0.916;2023-07-20T13:49:31;100919.15;;;36.47;9.55
73862;BME280;63459;51.456;-0.916;2023-07-20T13:51:56;100914.85;;;36.51;9.55
73862;BME280;63459;51.456;-0.916;2023-07-20T13:54:21;100911.68;;;36.75;9.46
73862;BME280;63459;51.456;-0.916;2023-07-20T13:56:47;100910.17;;;36.80;9.48
73862;BME280;63459;51.456;-0.916;2023-07-20T13:59:12;100913.89;;;36.93;9.56
73862;BME280;63459;51.456;-0.916;2023-07-20T14:01:37;100912.15;;;36.86;9.77
73862;BME280;63459;51.456;-0.916;2023-07-20T14:04:02;100908.30;;;36.90;9.95
73862;BME280;63459;51.456;-0.916;2023-07-20T14:06:30;100905.91;;;37.37;10.21
73862;BME280;63459;51.456;-0.916;2023-07-20T14:08:52;100907.49;;;36.91;10.38
73862;BME280;63459;51.456;-0.916;2023-07-20T14:11:18;100905.88;;;36.63;10.25
73862;BME280;63459;51.456;-0.916;2023-07-20T14:13:43;100906.08;;;36.56;10.20
73862;BME280;63459;51.456;-0.916;2023-07-20T14:16:08;100905.68;;;36.73;10.29
73862;BME280;63459;51.456;-0.916;2023-07-20T14:20:58;100902.36;;;36.42;10.42
73862;BME280;63459;51.456;-0.916;2023-07-20T14:23:23;100902.36;;;36.79;10.50
73862;BME280;63459;51.456;-0.916;2023-07-20T14:25:49;100900.63;;;36.51;10.59
73862;BME280;63459;51.456;-0.916;2023-07-20T14:28:19;100903.82;;;36.86;10.60
73862;BME280;63459;51.456;-0.916;2023-07-20T14:30:38;100903.82;;;36.16;10.33
73862;BME280;63459;51.456;-0.916;2023-07-20T14:33:04;100894.39;;;36.06;10.32
73862;BME280;63459;51.456;-0.916;2023-07-20T14:35:29;100894.48;;;36.00;10.50
73862;BME280;63459;51.456;-0.916;2023-07-20T14:37:54;100890.42;;;36.15;10.56
73862;BME280;63459;51.456;-0.916;2023-07-20T14:40:19;100886.36;;;36.45;10.48
73862;BME280;63459;51.456;-0.916;2023-07-20T14:42:44;100881.46;;;36.13;10.49